createdAt,value
2023-05-10T00:01:00.360Z,4.18
2023-05-10T00:03:27.584Z,4.14
2023-05-10T00:05:54.774Z,4.09
2023-05-10T00:08:22.037Z,4.05
2023-05-10T00:10:49.825Z,4.00
2023-05-10T00:13:16.989Z,3.96
2023-05-10T00:15:44.039Z,3.94
2023-05-10T00:18:11.705Z,3.92
2023-05-10T00:20:38.930Z,3.89
2023-05-10T00:23:06.197Z,3.85
2023-05-10T00:25:33.455Z,3.81
2023-05-10T00:28:01.944Z,3.74
2023-05-10T00:30:28.885Z,3.70
2023-05-10T00:32:56.128Z,3.67
2023-05-10T00:35:23.836Z,3.65
2023-05-10T00:37:51.168Z,3.64
2023-05-10T00:40:18.503Z,3.63
2023-05-10T00:42:48.454Z,3.61
2023-05-10T00:45:15.608Z,3.64
2023-05-10T00:47:42.908Z,3.67
2023-05-10T00:50:10.612Z,3.71
2023-05-10T00:52:37.906Z,3.75
2023-05-10T00:55:06.835Z,3.81
2023-05-10T00:57:33.901Z,3.86
2023-05-10T01:00:02.740Z,3.90
2023-05-10T01:02:30.164Z,3.96
2023-05-10T01:04:58.823Z,4.01
2023-05-10T01:07:26.051Z,4.04
2023-05-10T01:09:53.415Z,4.08
2023-05-10T01:12:21.414Z,3.99
2023-05-10T01:14:49.464Z,3.90
2023-05-10T01:17:17.334Z,3.83
2023-05-10T01:19:44.798Z,3.77
2023-05-10T01:22:20.974Z,3.74
2023-05-10T01:25:15.758Z,3.70
2023-05-10T01:27:45.659Z,3.63
2023-05-10T01:30:31.337Z,3.58
2023-05-10T01:33:06.566Z,3.52
2023-05-10T01:35:40.184Z,3.48
2023-05-10T01:38:30.869Z,3.46
2023-05-10T01:41:09.503Z,3.46
2023-05-10T01:44:01.310Z,3.45
2023-05-10T01:46:40.066Z,3.43
2023-05-10T01:49:12.173Z,3.39
2023-05-10T01:51:47.642Z,3.33
2023-05-10T01:54:19.329Z,3.28
2023-05-10T01:56:51.155Z,3.20
2023-05-10T01:59:20.574Z,3.13
2023-05-10T02:01:49.365Z,3.07
2023-05-10T02:04:19.826Z,3.04
2023-05-10T02:06:48.583Z,3.01
2023-05-10T02:09:17.128Z,2.99
2023-05-10T02:11:44.741Z,2.94
2023-05-10T02:14:14.757Z,2.90
2023-05-10T02:16:43.688Z,2.86
2023-05-10T02:19:12.780Z,2.78
2023-05-10T02:21:42.152Z,2.75
2023-05-10T02:24:11.260Z,2.72
2023-05-10T02:26:39.124Z,2.71
2023-05-10T02:29:08.108Z,2.70
2023-05-10T02:31:36.016Z,2.71
2023-05-10T02:34:04.583Z,2.70
2023-05-10T02:36:32.421Z,2.68
2023-05-10T02:39:02.592Z,2.67
2023-05-10T02:41:33.114Z,2.66
2023-05-10T02:44:03.473Z,2.65
2023-05-10T02:46:31.164Z,2.65
2023-05-10T02:48:58.779Z,2.65
2023-05-10T02:51:32.203Z,2.63
2023-05-10T02:54:04.858Z,2.62
2023-05-10T02:56:40.465Z,2.62
2023-05-10T02:59:07.666Z,2.62
2023-05-10T03:01:35.416Z,2.63
2023-05-10T03:04:02.537Z,2.62
2023-05-10T03:06:29.850Z,2.61
2023-05-10T03:08:58.133Z,2.58
2023-05-10T03:11:47.800Z,2.56
2023-05-10T03:14:27.439Z,2.54
2023-05-10T03:17:10.866Z,2.55
2023-05-10T03:19:51.407Z,2.55
2023-05-10T03:23:00.646Z,2.54
2023-05-10T03:25:30.357Z,2.50
2023-05-10T03:27:57.911Z,2.50
2023-05-10T03:30:26.095Z,2.51
2023-05-10T03:32:53.429Z,2.54
2023-05-10T03:35:21.329Z,2.56
2023-05-10T03:37:48.275Z,2.58
2023-05-10T03:40:16.175Z,2.63
2023-05-10T03:42:43.716Z,2.68
2023-05-10T03:45:11.387Z,2.75
2023-05-10T03:47:38.467Z,2.82
2023-05-10T03:50:06.623Z,2.88
2023-05-10T03:52:33.876Z,2.96
2023-05-10T03:55:01.029Z,3.03
2023-05-10T03:57:28.491Z,3.05
2023-05-10T03:59:55.954Z,3.08
2023-05-10T04:02:24.219Z,3.13
2023-05-10T04:04:51.590Z,3.21
2023-05-10T04:07:18.749Z,3.30
2023-05-10T04:09:45.902Z,3.40
2023-05-10T04:12:12.857Z,3.53
2023-05-10T04:14:39.778Z,3.67
2023-05-10T04:17:06.901Z,3.81
2023-05-10T04:19:34.113Z,3.96
2023-05-10T04:22:03.324Z,4.12
2023-05-10T04:24:30.371Z,4.28
2023-05-10T04:26:57.985Z,4.43
2023-05-10T04:29:25.299Z,4.59
2023-05-10T04:31:52.495Z,4.76
2023-05-10T04:34:21.243Z,4.94
2023-05-10T04:36:48.499Z,5.11
2023-05-10T04:39:15.774Z,5.26
2023-05-10T04:41:42.962Z,5.43
2023-05-10T04:44:09.978Z,5.59
2023-05-10T04:46:37.485Z,5.75
2023-05-10T04:49:04.899Z,5.89
2023-05-10T04:51:32.460Z,6.05
2023-05-10T04:54:06.238Z,6.21
2023-05-10T04:56:33.893Z,6.40
2023-05-10T04:59:01.221Z,6.58
2023-05-10T05:01:28.295Z,6.74
2023-05-10T05:03:55.676Z,6.89
2023-05-10T05:06:22.711Z,7.03
2023-05-10T05:08:49.915Z,7.18
2023-05-10T05:11:17.806Z,7.33
2023-05-10T05:13:45.267Z,7.54
2023-05-10T05:16:12.702Z,7.74
2023-05-10T05:18:39.981Z,7.96
2023-05-10T05:21:20.106Z,8.17
2023-05-10T05:23:47.209Z,8.38
2023-05-10T05:26:15.353Z,8.58
2023-05-10T05:28:42.617Z,8.78
2023-05-10T05:31:09.738Z,8.99
2023-05-10T05:33:37.748Z,9.18
2023-05-10T05:36:06.626Z,9.35
2023-05-10T05:38:33.902Z,9.53
2023-05-10T05:41:01.266Z,9.70
2023-05-10T05:43:28.378Z,9.86
2023-05-10T05:45:58.167Z,10.04
2023-05-10T05:48:25.382Z,10.24
2023-05-10T05:50:56.215Z,10.42
2023-05-10T05:53:23.994Z,10.58
2023-05-10T05:55:55.677Z,10.72
2023-05-10T05:58:23.678Z,10.83
2023-05-10T06:00:52.453Z,10.91
2023-05-10T06:03:20.253Z,11.01
2023-05-10T06:05:47.626Z,11.09
2023-05-10T06:08:14.780Z,11.14
2023-05-10T06:10:41.903Z,11.23
2023-05-10T06:13:09.393Z,11.31
2023-05-10T06:15:36.637Z,11.41
2023-05-10T06:18:04.025Z,11.50
2023-05-10T06:20:32.020Z,11.56
2023-05-10T06:22:59.646Z,11.65
2023-05-10T06:25:26.803Z,11.73
2023-05-10T06:27:57.727Z,11.83
2023-05-10T06:30:28.672Z,11.93
2023-05-10T06:32:55.967Z,12.02
2023-05-10T06:35:23.468Z,12.06
2023-05-10T06:37:51.517Z,12.13
2023-05-10T06:40:18.827Z,12.20
2023-05-10T06:42:46.836Z,12.27
2023-05-10T06:45:16.060Z,12.36
2023-05-10T06:47:44.084Z,12.47
2023-05-10T06:50:11.911Z,12.59
2023-05-10T06:52:39.724Z,12.65
2023-05-10T06:55:07.556Z,12.69
2023-05-10T06:57:35.121Z,12.73
2023-05-10T07:00:04.688Z,12.75
2023-05-10T07:02:31.769Z,12.78
2023-05-10T07:05:01.690Z,12.85
2023-05-10T07:07:30.283Z,12.89
2023-05-10T07:09:58.059Z,12.94
2023-05-10T07:12:25.775Z,13.02
2023-05-10T07:14:52.900Z,13.04
2023-05-10T07:17:20.321Z,13.08
2023-05-10T07:19:47.569Z,13.14
2023-05-10T07:22:15.974Z,13.23
2023-05-10T07:24:43.330Z,13.32
2023-05-10T07:27:10.403Z,13.43
2023-05-10T07:29:37.879Z,13.55
2023-05-10T07:32:06.272Z,13.64
2023-05-10T07:34:33.316Z,13.74
2023-05-10T07:37:00.994Z,13.83
2023-05-10T07:39:28.519Z,13.85
2023-05-10T07:41:56.263Z,13.79
2023-05-10T07:44:23.736Z,13.85
2023-05-10T07:46:50.967Z,13.87
2023-05-10T07:49:18.065Z,13.95
2023-05-10T07:51:44.981Z,14.10
2023-05-10T07:54:13.067Z,14.19
2023-05-10T07:56:42.431Z,14.32
2023-05-10T07:59:10.682Z,14.52
2023-05-10T08:01:39.206Z,14.75
2023-05-10T08:04:06.366Z,14.92
2023-05-10T08:06:33.381Z,15.06
2023-05-10T08:09:00.355Z,15.17
2023-05-10T08:11:28.324Z,15.29
2023-05-10T08:13:55.277Z,15.50
2023-05-10T08:16:22.515Z,15.60
2023-05-10T08:18:51.197Z,15.74
2023-05-10T08:21:18.369Z,15.83
2023-05-10T08:23:45.415Z,15.93
2023-05-10T08:26:12.541Z,16.09
2023-05-10T08:28:39.658Z,16.21
2023-05-10T08:31:06.945Z,16.33
2023-05-10T08:33:34.288Z,16.37
2023-05-10T08:36:01.602Z,16.29
2023-05-10T08:38:28.854Z,16.33
2023-05-10T08:40:59.438Z,16.50
2023-05-10T08:43:29.578Z,16.55
2023-05-10T08:46:00.464Z,16.65
2023-05-10T08:48:30.179Z,17.11
2023-05-10T08:51:01.342Z,17.44
2023-05-10T08:53:29.709Z,17.73
2023-05-10T08:55:57.882Z,18.25
2023-05-10T08:58:26.290Z,18.60
2023-05-10T09:00:53.941Z,18.63
2023-05-10T09:03:21.499Z,18.37
2023-05-10T09:05:50.096Z,18.39
2023-05-10T09:08:18.274Z,18.22
2023-05-10T09:10:47.885Z,17.97
2023-05-10T09:13:18.309Z,17.95
2023-05-10T09:15:46.483Z,17.93
2023-05-10T09:18:13.957Z,18.06
2023-05-10T09:20:41.604Z,18.11
2023-05-10T09:23:09.293Z,18.06
2023-05-10T09:25:37.666Z,17.93
2023-05-10T09:28:08.967Z,17.81
2023-05-10T09:30:36.800Z,17.75
2023-05-10T09:33:04.149Z,17.96
2023-05-10T09:35:33.851Z,17.94
2023-05-10T09:38:05.496Z,17.77
2023-05-10T09:40:33.072Z,17.96
2023-05-10T09:43:02.315Z,18.30
2023-05-10T09:45:37.041Z,18.32
2023-05-10T09:48:06.464Z,18.32
2023-05-10T09:50:34.602Z,18.29
2023-05-10T09:53:03.900Z,18.56
2023-05-10T09:55:40.318Z,18.79
2023-05-10T09:58:10.754Z,18.79
2023-05-10T10:00:40.001Z,18.94
2023-05-10T10:03:14.486Z,19.22
2023-05-10T10:05:45.499Z,19.39
2023-05-10T10:08:13.646Z,19.54
2023-05-10T10:10:41.559Z,19.52
2023-05-10T10:13:09.016Z,19.54
2023-05-10T10:15:36.214Z,19.53
2023-05-10T10:18:05.686Z,19.26
2023-05-10T10:20:33.014Z,19.01
2023-05-10T10:23:00.379Z,18.90
2023-05-10T10:25:27.648Z,18.83
2023-05-10T10:27:54.832Z,18.73
2023-05-10T10:30:49.573Z,18.65
2023-05-10T10:33:38.117Z,18.62
2023-05-10T10:36:06.085Z,18.83
2023-05-10T10:38:48.437Z,19.16
2023-05-10T10:41:30.720Z,19.31
2023-05-10T10:44:27.166Z,19.09
2023-05-10T10:47:11.966Z,19.15
2023-05-10T10:50:02.888Z,19.07
2023-05-10T10:52:41.478Z,19.17
2023-05-10T10:55:14.127Z,19.23
2023-05-10T10:57:41.537Z,19.51
2023-05-10T11:00:22.208Z,19.90
2023-05-10T11:02:54.384Z,19.85
2023-05-10T11:05:33.489Z,19.70
2023-05-10T11:08:08.682Z,19.84
2023-05-10T11:10:35.989Z,20.00
2023-05-10T11:13:08.917Z,20.27
2023-05-10T11:15:48.886Z,20.28
2023-05-10T11:18:29.414Z,20.22
2023-05-10T11:21:05.442Z,20.37
2023-05-10T11:23:47.945Z,20.67
2023-05-10T11:26:16.446Z,20.90
2023-05-10T11:28:50.080Z,20.86
2023-05-10T11:31:19.188Z,20.62
2023-05-10T11:33:51.237Z,20.56
2023-05-10T11:36:20.008Z,21.11
2023-05-10T11:38:48.010Z,21.65
2023-05-10T11:41:17.381Z,21.87
2023-05-10T11:43:48.109Z,22.00
2023-05-10T11:46:17.471Z,21.97
2023-05-10T11:48:44.786Z,22.18
2023-05-10T11:51:12.156Z,22.40
2023-05-10T11:53:39.400Z,22.37
2023-05-10T11:56:11.216Z,22.48
2023-05-10T11:58:39.652Z,22.45
2023-05-10T12:01:08.344Z,22.32
2023-05-10T12:03:36.205Z,22.30
2023-05-10T12:06:04.546Z,22.07
2023-05-10T12:08:31.650Z,22.23
2023-05-10T12:11:10.928Z,22.42
2023-05-10T12:13:40.739Z,22.52
2023-05-10T12:16:21.823Z,22.52
2023-05-10T12:18:54.072Z,22.45
2023-05-10T12:21:59.264Z,22.14
2023-05-10T12:24:26.460Z,21.97
2023-05-10T12:26:53.790Z,22.28
2023-05-10T12:29:21.037Z,22.56
2023-05-10T12:31:57.508Z,22.83
2023-05-10T12:34:31.119Z,22.96
2023-05-10T12:36:59.394Z,23.03
2023-05-10T12:39:26.804Z,23.00
2023-05-10T12:41:53.982Z,22.98
2023-05-10T12:44:21.184Z,23.03
2023-05-10T12:46:48.423Z,23.03
2023-05-10T12:49:15.580Z,23.32
2023-05-10T12:51:42.646Z,23.63
2023-05-10T12:54:10.304Z,23.61
2023-05-10T12:56:37.562Z,23.20
2023-05-10T12:59:04.921Z,22.89
2023-05-10T13:01:32.325Z,22.60
2023-05-10T13:04:00.563Z,22.44
2023-05-10T13:06:27.510Z,22.41
2023-05-10T13:08:54.671Z,22.39
2023-05-10T13:11:22.045Z,22.18
2023-05-10T13:13:49.283Z,21.95
2023-05-10T13:16:16.241Z,21.89
2023-05-10T13:18:43.563Z,22.10
2023-05-10T13:21:11.882Z,22.30
2023-05-10T13:23:38.958Z,22.61
2023-05-10T13:26:05.902Z,22.91
2023-05-10T13:28:32.886Z,23.22
2023-05-10T13:31:00.580Z,23.44
2023-05-10T13:33:27.455Z,23.57
2023-05-10T13:35:55.776Z,23.91
2023-05-10T13:38:22.882Z,24.10
2023-05-10T13:40:53.024Z,23.94
2023-05-10T13:43:20.381Z,23.89
2023-05-10T13:45:47.288Z,23.96
2023-05-10T13:48:14.190Z,23.78
2023-05-10T13:50:41.174Z,23.57
2023-05-10T13:53:08.288Z,23.71
2023-05-10T13:55:36.281Z,23.43
2023-05-10T13:58:03.173Z,22.55
2023-05-10T14:00:30.382Z,22.28
2023-05-10T14:02:57.325Z,22.22
2023-05-10T14:05:26.221Z,22.31
2023-05-10T14:07:54.197Z,22.12
2023-05-10T14:10:21.146Z,21.66
2023-05-10T14:12:48.347Z,21.22
2023-05-10T14:15:15.562Z,21.21
2023-05-10T14:17:42.743Z,21.29
2023-05-10T14:20:11.093Z,21.42
2023-05-10T14:22:38.153Z,21.64
2023-05-10T14:25:05.613Z,21.79
2023-05-10T14:27:32.976Z,22.04
2023-05-10T14:30:00.200Z,22.13
2023-05-10T14:32:28.415Z,22.23
2023-05-10T14:34:56.281Z,22.43
2023-05-10T14:37:23.334Z,22.70
2023-05-10T14:39:50.481Z,22.76
2023-05-10T14:42:17.655Z,22.37
2023-05-10T14:44:44.904Z,22.15
2023-05-10T14:47:12.398Z,22.10
2023-05-10T14:49:39.626Z,22.16
2023-05-10T14:52:07.391Z,22.18
2023-05-10T14:54:34.545Z,22.26
2023-05-10T14:57:01.901Z,22.32
2023-05-10T14:59:29.157Z,22.27
2023-05-10T15:01:56.827Z,22.23
2023-05-10T15:04:26.019Z,22.14
2023-05-10T15:06:59.631Z,22.19
2023-05-10T15:09:28.127Z,22.26
2023-05-10T15:11:55.579Z,22.25
2023-05-10T15:14:23.456Z,22.26
2023-05-10T15:16:50.616Z,22.14
2023-05-10T15:19:17.758Z,22.15
2023-05-10T15:21:45.672Z,22.24
2023-05-10T15:24:12.789Z,22.19
2023-05-10T15:26:39.853Z,21.93
2023-05-10T15:29:07.108Z,21.90
2023-05-10T15:31:36.362Z,21.92
2023-05-10T15:34:03.769Z,21.82
2023-05-10T15:36:32.564Z,21.74
2023-05-10T15:38:59.826Z,21.67
2023-05-10T15:41:26.809Z,21.45
2023-05-10T15:43:54.660Z,21.42
2023-05-10T15:46:22.406Z,21.40
2023-05-10T15:48:49.776Z,21.27
2023-05-10T15:51:16.939Z,21.15
2023-05-10T15:53:56.603Z,20.96
2023-05-10T15:56:31.100Z,20.81
2023-05-10T15:58:58.152Z,20.56
2023-05-10T16:01:25.823Z,20.55
2023-05-10T16:03:53.076Z,20.61
2023-05-10T16:06:20.343Z,20.64
2023-05-10T16:08:47.294Z,20.53
2023-05-10T16:11:14.550Z,20.50
2023-05-10T16:13:41.605Z,20.55
2023-05-10T16:20:37.190Z,20.72
2023-05-10T16:23:05.970Z,20.66
2023-05-10T16:25:33.334Z,20.65
2023-05-10T16:28:00.909Z,20.62
2023-05-10T16:30:29.899Z,20.38
2023-05-10T16:32:58.460Z,20.18
2023-05-10T16:35:26.253Z,20.10
2023-05-10T16:37:53.510Z,20.01
2023-05-10T16:40:21.179Z,19.98
2023-05-10T16:42:48.274Z,19.97
2023-05-10T16:45:16.693Z,19.92
2023-05-10T16:47:44.296Z,19.81
2023-05-10T16:50:11.855Z,19.63
2023-05-10T16:52:39.209Z,19.50
2023-05-10T16:55:06.876Z,19.38
2023-05-10T16:57:34.852Z,19.20
2023-05-10T17:00:03.680Z,18.99
2023-05-10T17:02:30.944Z,18.77
2023-05-10T17:04:58.169Z,18.55
2023-05-10T17:07:26.441Z,18.33
2023-05-10T17:09:53.713Z,18.11
2023-05-10T17:12:20.977Z,17.82
2023-05-10T17:14:48.119Z,17.52
2023-05-10T17:17:15.278Z,17.26
2023-05-10T17:19:45.202Z,17.04
2023-05-10T17:22:13.490Z,16.86
2023-05-10T17:24:40.731Z,16.61
2023-05-10T17:27:07.888Z,16.37
2023-05-10T17:29:34.933Z,16.16
2023-05-10T17:32:02.572Z,15.99
2023-05-10T17:34:29.665Z,15.79
2023-05-10T17:36:57.644Z,15.58
2023-05-10T17:39:24.917Z,15.38
2023-05-10T17:41:52.150Z,15.15
2023-05-10T17:44:19.512Z,14.96
2023-05-10T17:46:47.709Z,14.78
2023-05-10T17:49:15.055Z,14.60
2023-05-10T17:51:43.637Z,14.44
2023-05-10T17:54:10.785Z,14.24
2023-05-10T17:56:37.745Z,14.01
2023-05-10T17:59:05.225Z,13.83
2023-05-10T18:01:32.404Z,13.65
2023-05-10T18:04:00.031Z,13.47
2023-05-10T18:06:27.388Z,13.32
2023-05-10T18:08:54.750Z,13.17
2023-05-10T18:11:25.279Z,13.03
2023-05-10T18:13:52.335Z,12.88
2023-05-10T18:16:19.607Z,12.71
2023-05-10T18:18:47.000Z,12.58
2023-05-10T18:21:14.315Z,12.47
2023-05-10T18:23:41.466Z,12.36
2023-05-10T18:26:08.979Z,12.25
2023-05-10T18:28:36.371Z,12.13
2023-05-10T18:31:03.485Z,12.02
2023-05-10T18:33:30.714Z,11.93
2023-05-10T18:35:57.854Z,11.81
2023-05-10T18:38:25.333Z,11.72
2023-05-10T18:40:57.392Z,11.62
2023-05-10T18:43:24.547Z,11.55
2023-05-10T18:45:52.157Z,11.48
2023-05-10T18:48:19.373Z,11.41
2023-05-10T18:50:46.421Z,11.34
2023-05-10T18:53:13.686Z,11.27
2023-05-10T18:55:40.985Z,11.20
2023-05-10T18:58:08.611Z,11.13
2023-05-10T19:00:35.676Z,11.08
2023-05-10T19:03:03.489Z,11.03
2023-05-10T19:05:31.210Z,10.97
2023-05-10T19:07:58.462Z,10.92
2023-05-10T19:10:25.719Z,10.87
2023-05-10T19:12:52.872Z,10.82
2023-05-10T19:15:21.732Z,10.77
2023-05-10T19:17:51.033Z,10.72
2023-05-10T19:20:18.335Z,10.66
2023-05-10T19:23:02.312Z,10.60
2023-05-10T19:25:34.757Z,10.55
2023-05-10T19:28:02.214Z,10.50
2023-05-10T19:30:31.988Z,10.45
2023-05-10T19:32:59.304Z,10.40
2023-05-10T19:35:26.641Z,10.34
2023-05-10T19:37:53.798Z,10.29
2023-05-10T19:40:21.179Z,10.23
2023-05-10T19:42:48.216Z,10.16
2023-05-10T19:45:15.794Z,10.09
2023-05-10T19:47:43.436Z,10.02
2023-05-10T19:50:11.886Z,9.96
2023-05-10T19:52:39.189Z,9.90
2023-05-10T19:55:07.467Z,9.83
2023-05-10T19:57:34.530Z,9.75
2023-05-10T20:00:02.306Z,9.67
2023-05-10T20:02:38.169Z,9.60
2023-05-10T20:05:06.059Z,9.52
2023-05-10T20:07:33.283Z,9.45
2023-05-10T20:10:00.291Z,9.38
2023-05-10T20:12:27.914Z,9.32
2023-05-10T20:14:55.154Z,9.26
2023-05-10T20:17:22.271Z,9.19
2023-05-10T20:19:49.461Z,9.12
2023-05-10T20:22:16.640Z,9.05
2023-05-10T20:24:43.989Z,8.99
2023-05-10T20:27:12.584Z,8.89
2023-05-10T20:29:39.834Z,8.80
2023-05-10T20:32:06.952Z,8.67
2023-05-10T20:34:34.957Z,8.60
2023-05-10T20:37:01.964Z,8.54
2023-05-10T20:39:29.686Z,8.47
2023-05-10T20:41:56.934Z,8.41
2023-05-10T20:44:23.893Z,8.36
2023-05-10T20:46:51.046Z,8.33
2023-05-10T20:49:19.222Z,8.31
2023-05-10T20:51:46.587Z,8.30
2023-05-10T20:54:13.944Z,8.29
2023-05-10T20:56:41.365Z,8.29
2023-05-10T20:59:08.419Z,8.29
2023-05-10T21:01:35.553Z,8.29
2023-05-10T21:04:03.606Z,8.29
2023-05-10T21:06:31.482Z,8.29
2023-05-10T21:08:58.620Z,8.29
2023-05-10T21:11:25.801Z,8.29
2023-05-10T21:13:53.038Z,8.29
2023-05-10T21:16:20.415Z,8.28
2023-05-10T21:18:47.704Z,8.26
2023-05-10T21:21:15.014Z,8.25
2023-05-10T21:23:42.166Z,8.23
2023-05-10T21:26:09.319Z,8.22
2023-05-10T21:28:38.395Z,8.22
2023-05-10T21:31:07.226Z,8.22
2023-05-10T21:33:34.792Z,8.21
2023-05-10T21:36:01.764Z,8.21
2023-05-10T21:38:29.106Z,8.20
2023-05-10T21:40:56.453Z,8.19
2023-05-10T21:43:23.429Z,8.19
2023-05-10T21:45:50.486Z,8.18
2023-05-10T21:48:17.527Z,8.14
2023-05-10T21:50:47.129Z,8.12
2023-05-10T21:53:14.180Z,8.10
2023-05-10T21:55:41.539Z,8.05
2023-05-10T21:58:08.490Z,8.04
2023-05-10T22:00:35.439Z,8.04
2023-05-10T22:03:02.667Z,8.03
2023-05-10T22:05:30.071Z,8.03
2023-05-10T22:07:57.328Z,8.04
2023-05-10T22:10:24.372Z,8.03
2023-05-10T22:12:51.631Z,8.03
2023-05-10T22:15:18.786Z,8.03
2023-05-10T22:17:45.996Z,8.03
2023-05-10T22:20:13.418Z,8.04
2023-05-10T22:22:40.671Z,8.06
2023-05-10T22:25:08.227Z,8.07
2023-05-10T22:27:36.195Z,8.09
2023-05-10T22:30:04.104Z,8.09
2023-05-10T22:32:31.794Z,8.10
2023-05-10T22:34:59.098Z,8.12
2023-05-10T22:37:26.579Z,8.14
2023-05-10T22:39:53.736Z,8.17
2023-05-10T22:42:20.778Z,8.19
2023-05-10T22:44:47.932Z,8.22
2023-05-10T22:47:16.003Z,8.24
2023-05-10T22:49:43.055Z,8.27
2023-05-10T22:52:10.424Z,8.29
2023-05-10T22:54:37.607Z,8.30
2023-05-10T22:57:05.640Z,8.30
2023-05-10T22:59:33.109Z,8.30
2023-05-10T23:02:00.493Z,8.32
2023-05-10T23:04:27.749Z,8.33
2023-05-10T23:06:54.890Z,8.34
2023-05-10T23:09:22.039Z,8.34
2023-05-10T23:11:48.912Z,8.33
2023-05-10T23:14:16.476Z,8.30
2023-05-10T23:16:43.567Z,8.28
2023-05-10T23:19:10.671Z,8.25
2023-05-10T23:21:37.938Z,8.25
2023-05-10T23:24:05.825Z,8.25
2023-05-10T23:26:32.951Z,8.25
2023-05-10T23:29:01.435Z,8.25
2023-05-10T23:31:28.944Z,8.23
2023-05-10T23:33:56.294Z,8.23
2023-05-10T23:36:23.310Z,8.22
2023-05-10T23:38:50.511Z,8.20
2023-05-10T23:41:17.522Z,8.18
2023-05-10T23:43:44.670Z,8.17
2023-05-10T23:46:11.855Z,8.17
2023-05-10T23:48:38.940Z,8.16
2023-05-10T23:51:06.038Z,8.14
2023-05-10T23:53:33.406Z,8.12
2023-05-10T23:56:00.571Z,8.12
2023-05-10T23:58:27.720Z,8.09
